createdAt,value
2022-10-21T00:04:27.693Z,13.30
2022-10-21T00:09:29.110Z,19.00
2022-10-21T00:14:26.203Z,13.70
2022-10-21T00:19:24.489Z,16.30
2022-10-21T00:24:23.809Z,14.70
2022-10-21T00:29:23.158Z,15.30
2022-10-21T00:34:24.814Z,15.40
2022-10-21T00:39:21.461Z,10.70
2022-10-21T00:44:21.765Z,15.90
2022-10-21T00:49:22.064Z,14.90
2022-10-21T00:54:19.367Z,13.80
2022-10-21T00:59:18.668Z,13.90
2022-10-21T01:04:18.979Z,14.50
2022-10-21T01:09:17.320Z,13.30
2022-10-21T01:14:17.441Z,13.40
2022-10-21T01:19:16.775Z,13.50
2022-10-21T01:24:15.086Z,13.50
2022-10-21T01:29:14.405Z,12.40
2022-10-21T01:34:13.710Z,12.20
2022-10-21T01:39:14.020Z,12.50
2022-10-21T01:44:12.300Z,12.20
2022-10-21T01:49:11.702Z,11.60
2022-10-21T01:54:10.799Z,10.90
2022-10-21T01:59:11.123Z,11.70
2022-10-21T02:04:09.442Z,13.40
2022-10-21T02:09:07.853Z,12.70
2022-10-21T02:14:09.970Z,13.30
2022-10-21T02:19:08.321Z,13.20
2022-10-21T02:24:06.476Z,12.40
2022-10-21T02:29:06.781Z,13.80
2022-10-21T02:34:05.121Z,11.80
2022-10-21T02:39:04.475Z,12.70
2022-10-21T02:44:03.572Z,11.50
2022-10-21T02:49:02.850Z,12.50
2022-10-21T02:54:02.190Z,10.50
2022-10-21T02:59:00.484Z,9.30
2022-10-21T03:04:00.818Z,11.00
2022-10-21T03:09:01.169Z,11.20
2022-10-21T03:13:58.304Z,11.10
2022-10-21T03:18:58.459Z,13.70
2022-10-21T03:23:56.607Z,13.00
2022-10-21T03:28:56.796Z,14.20
2022-10-21T03:33:55.984Z,14.20
2022-10-21T03:38:54.134Z,13.40
2022-10-21T03:43:54.302Z,13.80
2022-10-21T03:48:58.244Z,14.10
2022-10-21T03:53:53.646Z,14.00
2022-10-21T03:58:56.268Z,13.30
2022-10-21T04:03:51.173Z,13.00
2022-10-21T04:08:51.578Z,14.30
2022-10-21T04:13:49.781Z,12.40
2022-10-21T04:18:49.014Z,12.90
2022-10-21T04:23:49.151Z,13.60
2022-10-21T04:28:47.450Z,14.80
2022-10-21T04:33:47.792Z,12.80
2022-10-21T04:38:47.115Z,15.60
2022-10-21T04:43:46.459Z,14.00
2022-10-21T04:48:44.759Z,11.40
2022-10-21T04:53:44.081Z,13.70
2022-10-21T04:58:43.393Z,12.20
2022-10-21T05:03:42.722Z,14.80
2022-10-21T05:08:42.088Z,12.90
2022-10-21T05:13:41.258Z,12.00
2022-10-21T05:18:42.435Z,13.50
2022-10-21T05:23:39.622Z,13.90
2022-10-21T05:28:39.866Z,12.30
2022-10-21T05:33:38.075Z,13.20
2022-10-21T05:38:37.229Z,14.00
2022-10-21T05:43:36.468Z,14.00
2022-10-21T05:48:35.771Z,12.60
2022-10-21T05:53:34.934Z,11.50
2022-10-21T05:58:34.076Z,12.80
2022-10-21T06:03:33.223Z,12.50
2022-10-21T06:08:33.427Z,12.00
2022-10-21T06:13:31.579Z,12.70
2022-10-21T06:18:31.767Z,14.30
2022-10-21T06:23:29.833Z,12.00
2022-10-21T06:28:30.184Z,11.90
2022-10-21T06:33:28.299Z,12.50
2022-10-21T06:38:27.647Z,12.70
2022-10-21T06:43:26.847Z,11.20
2022-10-21T06:48:27.976Z,12.00
2022-10-21T06:53:25.329Z,10.50
2022-10-21T06:58:24.437Z,11.60
2022-10-21T07:03:23.576Z,12.40
2022-10-21T07:08:39.632Z,13.20
2022-10-21T07:13:26.132Z,12.10
2022-10-21T07:18:22.352Z,12.20
2022-10-21T07:23:21.443Z,12.40
2022-10-21T07:28:20.754Z,13.20
2022-10-21T07:33:19.102Z,14.10
2022-10-21T07:38:20.934Z,12.40
2022-10-21T07:43:18.704Z,13.00
2022-10-21T07:48:17.018Z,13.40
2022-10-21T07:53:17.723Z,12.10
2022-10-21T07:58:15.523Z,12.20
2022-10-21T08:03:13.674Z,12.70
2022-10-21T08:08:13.994Z,11.40
2022-10-21T08:13:13.297Z,12.50
2022-10-21T08:18:13.583Z,12.90
2022-10-21T08:23:12.909Z,12.00
2022-10-21T08:28:11.227Z,11.90
2022-10-21T08:33:11.355Z,11.60
2022-10-21T08:38:09.663Z,11.30
2022-10-21T08:43:10.036Z,11.20
2022-10-21T08:48:08.140Z,11.70
2022-10-21T08:53:09.482Z,11.20
2022-10-21T08:58:06.804Z,10.70
2022-10-21T09:03:07.227Z,11.40
2022-10-21T09:08:05.368Z,11.70
2022-10-21T09:13:04.706Z,10.80
2022-10-21T09:18:02.805Z,11.50
2022-10-21T09:23:02.220Z,11.90
2022-10-21T09:28:02.689Z,12.00
2022-10-21T09:33:01.732Z,12.70
2022-10-21T09:38:00.884Z,11.60
2022-10-21T09:43:00.261Z,12.10
2022-10-21T09:47:59.408Z,13.30
2022-10-21T09:52:59.726Z,11.50
2022-10-21T09:58:02.156Z,10.10
2022-10-21T10:02:58.352Z,10.80
2022-10-21T10:07:57.496Z,11.20
2022-10-21T10:12:55.695Z,10.80
2022-10-21T10:17:54.911Z,10.90
2022-10-21T10:22:56.156Z,10.20
2022-10-21T10:27:52.330Z,10.50
2022-10-21T10:32:52.505Z,9.70
2022-10-21T10:37:52.669Z,8.40
2022-10-21T10:42:50.828Z,8.70
2022-10-21T10:47:49.982Z,7.60
2022-10-21T10:52:49.124Z,8.10
2022-10-21T10:57:59.124Z,7.70
2022-10-21T11:02:48.664Z,7.70
2022-10-21T11:07:47.773Z,7.80
2022-10-21T11:12:46.125Z,7.30
2022-10-21T11:17:45.250Z,6.90
2022-10-21T11:22:44.704Z,7.10
2022-10-21T11:27:43.841Z,7.80
2022-10-21T11:32:44.656Z,6.50
2022-10-21T11:37:42.469Z,6.80
2022-10-21T11:42:42.109Z,6.80
2022-10-21T11:47:42.016Z,5.60
2022-10-21T11:52:41.729Z,5.70
2022-10-21T11:57:40.649Z,5.40
2022-10-21T12:02:40.307Z,5.10
2022-10-21T12:07:38.131Z,5.80
2022-10-21T12:12:39.506Z,5.90
2022-10-21T12:22:35.803Z,6.00
2022-10-21T12:27:34.880Z,5.80
2022-10-21T12:32:34.041Z,6.20
2022-10-21T12:37:33.283Z,6.00
2022-10-21T12:42:32.411Z,5.40
2022-10-21T12:47:31.769Z,5.00
2022-10-21T12:52:32.084Z,5.20
2022-10-21T12:57:30.424Z,5.00
2022-10-21T13:02:30.532Z,4.50
2022-10-21T13:07:28.840Z,4.90
2022-10-21T13:12:28.135Z,5.10
2022-10-21T13:17:27.482Z,6.00
2022-10-21T13:22:26.601Z,4.80
2022-10-21T13:27:26.971Z,5.50
2022-10-21T13:32:25.108Z,5.00
2022-10-21T13:37:24.326Z,4.60
2022-10-21T13:42:25.167Z,4.70
2022-10-21T13:47:23.724Z,4.50
2022-10-21T13:52:21.881Z,4.40
2022-10-21T13:57:21.036Z,4.40
2022-10-21T14:02:19.388Z,5.20
2022-10-21T14:07:19.757Z,4.90
2022-10-21T14:12:18.932Z,4.60
2022-10-21T14:17:18.124Z,4.20
2022-10-21T14:22:17.306Z,4.50
2022-10-21T14:27:16.441Z,4.30
2022-10-21T14:32:15.803Z,7.70
2022-10-21T14:37:15.040Z,4.30
2022-10-21T14:42:15.309Z,8.20
2022-10-21T14:47:12.478Z,4.50
2022-10-21T14:52:11.614Z,4.20
2022-10-21T14:57:12.982Z,4.00
2022-10-21T15:02:10.217Z,5.90
2022-10-21T15:07:10.406Z,10.60
2022-10-21T15:12:09.624Z,2.60
2022-10-21T15:17:09.785Z,50.70
2022-10-21T15:22:09.081Z,7.10
2022-10-21T15:27:07.405Z,35.10
2022-10-21T15:32:08.536Z,7.70
2022-10-21T15:37:06.849Z,5.40
2022-10-21T15:42:05.393Z,5.10
2022-10-21T15:47:04.342Z,4.90
2022-10-21T15:52:03.633Z,5.20
2022-10-21T15:57:03.989Z,5.10
2022-10-21T16:02:02.454Z,5.70
2022-10-21T16:07:02.423Z,4.90
2022-10-21T16:12:01.776Z,5.10
2022-10-21T16:16:58.895Z,5.30
2022-10-21T16:21:59.158Z,5.70
2022-10-21T16:26:58.844Z,4.90
2022-10-21T16:31:59.990Z,6.20
2022-10-21T16:36:56.917Z,66.10
2022-10-21T16:41:57.247Z,127.30
2022-10-21T16:46:56.506Z,55.70
2022-10-21T16:51:55.764Z,67.00
2022-10-21T16:56:55.683Z,41.30
2022-10-21T17:01:53.530Z,56.00
2022-10-21T17:06:53.635Z,52.20
2022-10-21T17:11:51.787Z,35.40
2022-10-21T17:16:51.340Z,66.40
2022-10-21T17:21:52.148Z,51.10
2022-10-21T17:26:50.702Z,17.00
2022-10-21T17:31:50.173Z,16.10
2022-10-21T17:36:46.866Z,17.70
2022-10-21T17:41:48.413Z,14.70
2022-10-21T17:46:46.566Z,29.30
2022-10-21T17:51:45.733Z,10.90
2022-10-21T17:56:45.091Z,67.80
2022-10-21T18:01:45.301Z,74.90
2022-10-21T18:06:45.234Z,59.70
2022-10-21T18:11:42.804Z,84.70
2022-10-21T18:16:42.953Z,119.60
2022-10-21T18:21:44.108Z,271.00
2022-10-21T18:26:40.494Z,318.70
2022-10-21T18:31:40.878Z,237.30
2022-10-21T18:36:38.991Z,183.30
2022-10-21T18:41:39.991Z,144.00
2022-10-21T18:46:37.210Z,93.20
2022-10-21T18:51:41.039Z,64.50
2022-10-21T18:56:36.254Z,44.20
2022-10-21T19:01:35.810Z,43.40
2022-10-21T19:06:35.017Z,31.90
2022-10-21T19:11:34.192Z,30.30
2022-10-21T19:16:32.348Z,93.50
2022-10-21T19:21:31.550Z,207.60
2022-10-21T19:26:30.734Z,115.60
2022-10-21T19:31:36.334Z,117.90
2022-10-21T19:36:33.119Z,94.40
2022-10-21T19:41:30.126Z,135.70
2022-10-21T19:46:28.802Z,188.60
2022-10-21T19:51:27.896Z,224.10
2022-10-21T19:56:29.634Z,194.80
2022-10-21T20:01:26.630Z,154.40
2022-10-21T20:06:30.505Z,53.70
2022-10-21T20:11:44.771Z,85.20
2022-10-21T20:16:23.092Z,117.50
2022-10-21T20:21:23.357Z,161.60
2022-10-21T20:26:22.590Z,77.30
2022-10-21T20:31:20.801Z,65.90
2022-10-21T20:36:21.315Z,121.50
2022-10-21T20:41:19.424Z,144.60
2022-10-21T20:46:18.470Z,133.10
2022-10-21T20:51:17.686Z,131.60
2022-10-21T20:56:17.962Z,65.00
2022-10-21T21:01:16.179Z,52.60
2022-10-21T21:06:16.460Z,60.70
2022-10-21T21:11:14.664Z,42.30
2022-10-21T21:16:13.829Z,37.10
2022-10-21T21:21:13.012Z,57.40
2022-10-21T21:26:13.198Z,190.10
2022-10-21T21:31:11.388Z,94.20
2022-10-21T21:36:10.567Z,107.10
2022-10-21T21:41:10.536Z,103.20
2022-10-21T21:46:08.934Z,226.60
2022-10-21T21:51:09.142Z,122.40
2022-10-21T21:56:08.352Z,91.50
2022-10-21T22:01:06.526Z,130.90
2022-10-21T22:06:06.705Z,122.40
2022-10-21T22:11:04.888Z,124.10
2022-10-21T22:16:05.094Z,132.40
2022-10-21T22:21:03.306Z,150.70
2022-10-21T22:26:03.517Z,98.20
2022-10-21T22:31:01.734Z,101.10
2022-10-21T22:36:00.913Z,79.00
2022-10-21T22:41:03.872Z,174.00
2022-10-21T22:46:05.231Z,127.60
2022-10-21T22:50:58.666Z,125.10
2022-10-21T22:55:58.877Z,159.40
2022-10-21T23:00:57.127Z,325.90
2022-10-21T23:05:56.330Z,135.30
2022-10-21T23:10:57.527Z,163.00
2022-10-21T23:15:54.714Z,193.00
2022-10-21T23:20:57.008Z,123.80
2022-10-21T23:25:53.188Z,119.20
2022-10-21T23:30:52.352Z,89.70
2022-10-21T23:35:51.520Z,111.40
2022-10-21T23:40:51.707Z,216.70
2022-10-21T23:45:49.859Z,131.70
2022-10-21T23:50:49.069Z,161.00
2022-10-21T23:55:48.376Z,128.50
